createdAt,value
2018-06-02T00:00:11.828Z,98390.47
2018-06-02T00:02:40.076Z,98385.81
2018-06-02T00:05:08.387Z,98384.15
2018-06-02T00:07:36.589Z,98386.28
2018-06-02T00:10:04.832Z,98386.26
2018-06-02T00:12:33.092Z,98382.45
2018-06-02T00:15:02.105Z,98384.64
2018-06-02T00:17:30.358Z,98390.73
2018-06-02T00:19:59.365Z,98381.91
2018-06-02T00:22:27.620Z,98387.88
2018-06-02T00:24:56.646Z,98384.71
2018-06-02T00:27:24.889Z,98385.25
2018-06-02T00:29:53.145Z,98381.98
2018-06-02T00:32:21.400Z,98380.71
2018-06-02T00:34:49.649Z,98377.55
2018-06-02T00:37:17.911Z,98385.53
2018-06-02T00:39:46.926Z,98383.69
2018-06-02T00:42:15.613Z,98384.09
2018-06-02T00:44:43.870Z,98380.08
2018-06-02T00:47:12.889Z,98384.76
2018-06-02T00:49:41.132Z,98381.64
2018-06-02T00:52:10.165Z,98385.84
2018-06-02T00:54:56.152Z,98379.17
2018-06-02T00:57:24.405Z,98381.52
2018-06-02T00:59:52.647Z,98377.22
2018-06-02T01:02:20.900Z,98380.75
2018-06-02T01:04:49.150Z,98385.13
2018-06-02T01:07:17.405Z,98384.63
2018-06-02T01:09:45.655Z,98385.23
2018-06-02T01:12:14.689Z,98383.23
2018-06-02T01:14:42.940Z,98384.98
2018-06-02T01:17:11.189Z,98385.89
2018-06-02T01:19:39.474Z,98382.36
2018-06-02T01:22:08.481Z,98386.69
2018-06-02T01:24:37.504Z,98381.50
2018-06-02T01:27:05.749Z,98381.11
2018-06-02T01:29:34.005Z,98376.67
2018-06-02T01:32:02.265Z,98377.98
2018-06-02T01:34:30.516Z,98378.00
2018-06-02T01:36:58.764Z,98375.25
2018-06-02T01:39:27.016Z,98374.69
2018-06-02T01:41:56.030Z,98380.13
2018-06-02T01:44:24.284Z,98381.23
2018-06-02T01:46:53.304Z,98378.39
2018-06-02T01:49:21.563Z,98375.22
2018-06-02T01:51:50.572Z,98378.13
2018-06-02T01:54:18.839Z,98367.31
2018-06-02T01:56:47.849Z,98378.95
2018-06-02T01:59:16.098Z,98371.59
2018-06-02T02:01:45.121Z,98377.33
2018-06-02T02:04:13.376Z,98383.22
2018-06-02T02:06:41.632Z,98376.28
2018-06-02T02:09:10.649Z,98377.87
2018-06-02T02:11:38.933Z,98384.86
2018-06-02T02:14:07.174Z,98378.16
2018-06-02T02:16:36.201Z,98373.89
2018-06-02T02:19:04.445Z,98374.71
2018-06-02T02:21:32.697Z,98376.14
2018-06-02T02:24:00.956Z,98375.88
2018-06-02T02:26:29.213Z,98375.34
2018-06-02T02:28:57.457Z,98380.30
2018-06-02T02:31:26.478Z,98377.50
2018-06-02T02:33:54.724Z,98374.81
2018-06-02T02:36:23.748Z,98379.05
2018-06-02T02:38:51.997Z,98385.26
2018-06-02T02:41:21.023Z,98387.39
2018-06-02T02:43:49.269Z,98384.57
2018-06-02T02:46:17.534Z,98383.70
2018-06-02T02:48:46.544Z,98383.36
2018-06-02T02:51:14.804Z,98385.37
2018-06-02T02:53:43.822Z,98388.16
2018-06-02T02:56:12.745Z,98394.47
2018-06-02T02:58:40.997Z,98391.00
2018-06-02T03:01:09.245Z,98392.84
2018-06-02T03:03:38.265Z,98393.45
2018-06-02T03:06:06.518Z,98388.48
2018-06-02T03:08:34.781Z,98389.83
2018-06-02T03:11:03.797Z,98394.88
2018-06-02T03:13:32.044Z,98397.84
2018-06-02T03:16:01.061Z,98395.87
2018-06-02T03:18:30.108Z,98401.56
2018-06-02T03:20:58.356Z,98412.95
2018-06-02T03:23:26.614Z,98407.82
2018-06-02T03:25:54.859Z,98419.44
2018-06-02T03:28:23.884Z,98421.58
2018-06-02T03:30:52.126Z,98419.81
2018-06-02T03:33:21.140Z,98423.64
2018-06-02T03:35:49.388Z,98423.68
2018-06-02T03:38:17.654Z,98421.18
2018-06-02T03:40:47.402Z,98425.52
2018-06-02T03:43:15.657Z,98422.73
2018-06-02T03:45:43.900Z,98418.95
2018-06-02T03:48:12.157Z,98421.76
2018-06-02T03:50:40.409Z,98415.63
2018-06-02T03:53:08.709Z,98415.80
2018-06-02T03:55:37.691Z,98422.98
2018-06-02T03:58:05.944Z,98423.28
2018-06-02T04:00:35.062Z,98425.84
2018-06-02T04:03:03.305Z,98413.83
2018-06-02T04:05:32.330Z,98421.25
2018-06-02T04:08:00.585Z,98430.52
2018-06-02T04:10:28.858Z,98422.98
2018-06-02T04:12:57.857Z,98423.87
2018-06-02T04:15:26.109Z,98432.81
2018-06-02T04:17:55.136Z,98429.70
2018-06-02T04:20:25.044Z,98430.37
2018-06-02T04:22:53.289Z,98429.89
2018-06-02T04:25:21.546Z,98437.24
2018-06-02T04:27:49.794Z,98435.55
2018-06-02T04:30:18.048Z,98438.62
2018-06-02T04:32:46.310Z,98439.81
2018-06-02T04:35:15.826Z,98444.84
2018-06-02T04:37:44.072Z,98443.20
2018-06-02T04:40:13.091Z,98450.02
2018-06-02T04:42:41.345Z,98451.63
2018-06-02T04:45:10.370Z,98452.30
2018-06-02T04:47:38.617Z,98456.25
2018-06-02T04:50:07.629Z,98462.41
2018-06-02T04:52:35.883Z,98461.73
2018-06-02T04:55:04.900Z,98459.28
2018-06-02T04:57:33.154Z,98457.23
2018-06-02T05:00:02.170Z,98455.27
2018-06-02T05:02:30.421Z,98463.05
2018-06-02T05:04:59.429Z,98456.57
2018-06-02T05:07:27.695Z,98463.88
2018-06-02T05:09:56.705Z,98467.41
2018-06-02T05:12:24.961Z,98470.20
2018-06-02T05:14:53.972Z,98466.31
2018-06-02T05:17:22.253Z,98464.44
2018-06-02T05:19:51.177Z,98470.23
2018-06-02T05:22:19.420Z,98468.58
2018-06-02T05:24:47.675Z,98469.69
2018-06-02T05:27:16.701Z,98470.61
2018-06-02T05:29:44.960Z,98468.13
2018-06-02T05:32:13.200Z,98471.81
2018-06-02T05:34:41.456Z,98471.87
2018-06-02T05:37:09.705Z,98470.91
2018-06-02T05:39:37.957Z,98474.02
2018-06-02T05:42:06.213Z,98472.24
2018-06-02T05:44:34.469Z,98469.22
2018-06-02T05:47:02.717Z,98467.45
2018-06-02T05:49:30.974Z,98470.22
2018-06-02T05:51:59.216Z,98463.60
2018-06-02T05:54:28.242Z,98465.12
2018-06-02T05:56:56.485Z,98461.70
2018-06-02T05:59:25.508Z,98461.59
2018-06-02T06:01:53.765Z,98460.24
2018-06-02T06:04:22.789Z,98463.03
2018-06-02T06:06:51.038Z,98462.48
2018-06-02T06:09:19.296Z,98461.77
2018-06-02T06:11:48.306Z,98465.63
2018-06-02T06:14:16.556Z,98473.16
2018-06-02T06:16:44.804Z,98466.16
2018-06-02T06:19:14.222Z,98465.80
2018-06-02T06:21:42.470Z,98471.14
2018-06-02T06:24:10.733Z,98470.95
2018-06-02T06:26:38.986Z,98464.68
2018-06-02T06:29:07.232Z,98467.64
2018-06-02T06:31:35.490Z,98467.53
2018-06-02T06:34:03.744Z,98471.95
2018-06-02T06:36:31.988Z,98477.95
2018-06-02T06:39:00.240Z,98469.81
2018-06-02T06:41:28.495Z,98465.80
2018-06-02T06:43:56.757Z,98474.28
2018-06-02T06:46:25.005Z,98477.70
2018-06-02T06:48:53.262Z,98481.69
2018-06-02T06:51:21.517Z,98487.12
2018-06-02T06:53:49.760Z,98476.61
2018-06-02T06:56:18.012Z,98485.68
2018-06-02T06:58:46.264Z,98486.09
2018-06-02T07:01:15.288Z,98482.08
2018-06-02T07:03:43.540Z,98483.27
2018-06-02T07:06:11.787Z,98485.54
2018-06-02T07:08:40.037Z,98485.26
2018-06-02T07:11:08.313Z,98490.20
2018-06-02T07:13:36.561Z,98493.69
2018-06-02T07:16:04.826Z,98487.91
2018-06-02T07:18:33.081Z,98492.89
2018-06-02T07:21:02.100Z,98491.48
2018-06-02T07:23:30.349Z,98487.30
2018-06-02T07:25:59.366Z,98477.97
2018-06-02T07:28:27.612Z,98484.61
2018-06-02T07:30:56.634Z,98477.96
2018-06-02T07:33:24.884Z,98475.66
2018-06-02T07:35:53.897Z,98475.90
2018-06-02T07:38:22.150Z,98473.56
2018-06-02T07:40:51.165Z,98475.63
2018-06-02T07:43:19.421Z,98474.98
2018-06-02T07:45:48.437Z,98470.45
2018-06-02T07:48:16.693Z,98463.30
2018-06-02T07:50:45.705Z,98462.74
2018-06-02T07:53:13.969Z,98460.27
2018-06-02T07:55:42.221Z,98462.57
2018-06-02T07:58:11.233Z,98462.05
2018-06-02T08:00:39.490Z,98459.68
2018-06-02T08:03:07.733Z,98458.30
2018-06-02T08:05:35.986Z,98455.27
2018-06-02T08:08:04.239Z,98446.16
2018-06-02T08:10:32.484Z,98456.84
2018-06-02T08:13:00.736Z,98445.47
2018-06-02T08:15:29.001Z,98441.28
2018-06-02T08:17:57.252Z,98459.14
2018-06-02T08:20:25.509Z,98452.25
2018-06-02T08:22:54.526Z,98455.34
2018-06-02T08:25:22.778Z,98452.59
2018-06-02T08:27:51.798Z,98446.16
2018-06-02T08:30:20.052Z,98456.39
2018-06-02T08:32:48.309Z,98459.07
2018-06-02T08:35:17.329Z,98450.79
2018-06-02T08:37:45.576Z,98460.18
2018-06-02T08:40:14.604Z,98459.98
2018-06-02T08:42:42.845Z,98454.66
2018-06-02T08:45:11.870Z,98458.05
2018-06-02T08:47:40.119Z,98459.88
2018-06-02T08:50:09.137Z,98457.63
2018-06-02T08:52:37.390Z,98450.96
2018-06-02T08:55:06.405Z,98456.08
2018-06-02T08:57:34.652Z,98455.45
2018-06-02T09:00:03.677Z,98458.95
2018-06-02T09:02:31.925Z,98450.38
2018-06-02T09:05:00.937Z,98451.33
2018-06-02T09:07:29.193Z,98459.15
2018-06-02T09:09:58.213Z,98449.66
2018-06-02T09:12:26.466Z,98455.80
2018-06-02T09:14:55.483Z,98454.97
2018-06-02T09:17:23.742Z,98457.16
2018-06-02T09:19:51.985Z,98455.72
2018-06-02T09:22:20.249Z,98464.08
2018-06-02T09:24:48.485Z,98461.50
2018-06-02T09:27:16.745Z,98457.98
2018-06-02T09:29:45.025Z,98447.86
2018-06-02T09:32:13.383Z,98458.70
2018-06-02T09:34:41.625Z,98455.25
2018-06-02T09:37:09.889Z,98453.96
2018-06-02T09:39:38.133Z,98449.99
2018-06-02T09:42:06.397Z,98452.07
2018-06-02T09:44:35.410Z,98448.16
2018-06-02T09:47:03.661Z,98470.05
2018-06-02T09:49:32.673Z,98464.72
2018-06-02T09:52:00.954Z,98460.34
2018-06-02T09:54:29.245Z,98456.64
2018-06-02T09:56:57.460Z,98461.55
2018-06-02T09:59:25.714Z,98460.45
2018-06-02T10:01:53.969Z,98457.07
2018-06-02T10:04:22.220Z,98456.32
2018-06-02T10:06:50.501Z,98457.62
2018-06-02T10:09:18.762Z,98457.11
2018-06-02T10:11:47.785Z,98462.35
2018-06-02T10:14:16.041Z,98460.63
2018-06-02T10:16:44.309Z,98454.97
2018-06-02T10:19:12.562Z,98459.23
2018-06-02T10:21:41.577Z,98462.58
2018-06-02T10:24:10.602Z,98460.79
2018-06-02T10:26:38.853Z,98453.95
2018-06-02T10:29:07.109Z,98449.05
2018-06-02T10:31:36.135Z,98457.27
2018-06-02T10:34:04.958Z,98457.12
2018-06-02T10:36:33.211Z,98451.88
2018-06-02T10:39:01.467Z,98456.55
2018-06-02T10:41:29.713Z,98461.84
2018-06-02T10:43:58.743Z,98459.30
2018-06-02T10:46:27.006Z,98457.59
2018-06-02T10:48:55.263Z,98450.58
2018-06-02T10:51:24.279Z,98450.95
2018-06-02T10:53:52.538Z,98450.91
2018-06-02T10:56:21.561Z,98456.40
2018-06-02T10:58:49.823Z,98447.03
2018-06-02T11:01:18.069Z,98450.42
2018-06-02T11:03:46.325Z,98447.26
2018-06-02T11:06:14.582Z,98438.23
2018-06-02T11:08:42.851Z,98439.50
2018-06-02T11:11:11.094Z,98436.22
2018-06-02T11:13:39.360Z,98434.90
2018-06-02T11:16:08.376Z,98439.50
2018-06-02T11:18:36.629Z,98437.98
2018-06-02T11:21:05.646Z,98440.63
2018-06-02T11:23:34.604Z,98443.53
2018-06-02T11:26:03.622Z,98443.05
2018-06-02T11:28:31.889Z,98433.96
2018-06-02T11:31:00.140Z,98434.11
2018-06-02T11:33:28.394Z,98436.06
2018-06-02T11:35:56.650Z,98433.88
2018-06-02T11:38:24.894Z,98428.37
2018-06-02T11:40:53.152Z,98427.70
2018-06-02T11:43:22.170Z,98424.23
2018-06-02T11:45:50.426Z,98428.45
2018-06-02T11:48:19.439Z,98418.50
2018-06-02T11:50:47.698Z,98420.54
2018-06-02T11:53:17.209Z,98416.02
2018-06-02T11:55:45.566Z,98412.05
2018-06-02T11:58:13.901Z,98406.47
2018-06-02T12:00:42.238Z,98401.25
2018-06-02T12:03:10.542Z,98408.77
2018-06-02T12:05:38.838Z,98400.72
2018-06-02T12:08:07.146Z,98406.75
2018-06-02T12:10:36.207Z,98409.60
2018-06-02T12:13:04.501Z,98401.67
2018-06-02T12:15:32.825Z,98401.46
2018-06-02T12:18:01.111Z,98396.38
2018-06-02T12:20:29.416Z,98398.38
2018-06-02T12:22:58.471Z,98393.19
2018-06-02T12:25:26.779Z,98395.70
2018-06-02T12:27:55.867Z,98396.03
2018-06-02T12:30:24.196Z,98395.90
2018-06-02T12:32:53.277Z,98386.41
2018-06-02T12:35:21.585Z,98388.59
2018-06-02T12:37:50.640Z,98390.88
2018-06-02T12:40:18.946Z,98380.33
2018-06-02T12:42:48.039Z,98385.41
2018-06-02T12:45:17.249Z,98381.06
2018-06-02T12:47:46.317Z,98373.47
2018-06-02T12:50:14.587Z,98370.63
2018-06-02T12:52:42.908Z,98380.50
2018-06-02T12:55:11.210Z,98372.55
2018-06-02T12:57:39.544Z,98374.18
2018-06-02T13:00:07.846Z,98370.08
2018-06-02T13:02:36.151Z,98376.80
2018-06-02T13:05:04.502Z,98364.52
2018-06-02T13:07:32.807Z,98365.23
2018-06-02T13:10:01.962Z,98357.14
2018-06-02T13:12:30.314Z,98357.29
2018-06-02T13:14:59.363Z,98353.94
2018-06-02T13:17:28.426Z,98356.88
2018-06-02T13:19:56.726Z,98358.88
2018-06-02T13:22:25.032Z,98364.59
2018-06-02T13:24:53.338Z,98361.04
2018-06-02T13:27:23.331Z,98357.21
2018-06-02T13:29:51.698Z,98357.27
2018-06-02T13:32:19.973Z,98358.45
2018-06-02T13:34:48.299Z,98357.28
2018-06-02T13:37:16.618Z,98349.52
2018-06-02T13:39:44.934Z,98338.76
2018-06-02T13:42:14.013Z,98342.72
2018-06-02T13:44:42.287Z,98346.05
2018-06-02T13:47:10.583Z,98344.00
2018-06-02T13:49:39.671Z,98344.69
2018-06-02T13:52:08.754Z,98343.48
2018-06-02T13:54:37.106Z,98329.61
2018-06-02T13:57:06.185Z,98326.38
2018-06-02T13:59:34.488Z,98331.32
2018-06-02T14:02:02.789Z,98327.90
2018-06-02T14:04:31.081Z,98324.64
2018-06-02T14:06:59.378Z,98318.55
2018-06-02T14:09:27.678Z,98309.23
2018-06-02T14:11:55.978Z,98303.61
2018-06-02T14:14:24.236Z,98317.71
2018-06-02T14:16:52.528Z,98316.78
2018-06-02T14:19:21.518Z,98311.55
2018-06-02T14:21:49.807Z,98298.97
2018-06-02T14:24:18.141Z,98311.58
2018-06-02T14:26:46.446Z,98318.93
2018-06-02T14:29:14.757Z,98304.26
2018-06-02T14:31:43.065Z,98297.69
2018-06-02T14:34:11.369Z,98309.26
2018-06-02T14:36:39.682Z,98306.63
2018-06-02T14:39:08.004Z,98304.70
2018-06-02T14:41:36.294Z,98301.02
2018-06-02T14:44:04.567Z,98294.75
2018-06-02T14:46:32.863Z,98299.59
2018-06-02T14:49:01.149Z,98288.80
2018-06-02T14:51:29.413Z,98286.02
2018-06-02T14:53:57.715Z,98292.81
2018-06-02T14:56:26.773Z,98284.53
2018-06-02T14:58:55.050Z,98292.28
2018-06-02T15:01:23.384Z,98294.30
2018-06-02T15:03:51.765Z,98287.17
2018-06-02T15:06:19.983Z,98282.59
2018-06-02T15:08:48.321Z,98279.91
2018-06-02T15:11:16.670Z,98280.49
2018-06-02T15:13:44.887Z,98282.77
2018-06-02T15:16:13.152Z,98279.78
2018-06-02T15:18:41.423Z,98276.47
2018-06-02T15:21:09.730Z,98269.66
2018-06-02T15:23:38.005Z,98271.91
2018-06-02T15:26:06.318Z,98271.37
2018-06-02T15:28:34.642Z,98273.58
2018-06-02T15:31:02.946Z,98272.91
2018-06-02T15:33:31.238Z,98271.55
2018-06-02T15:36:00.279Z,98264.55
2018-06-02T15:38:28.622Z,98259.44
2018-06-02T15:40:57.686Z,98256.04
2018-06-02T15:43:25.972Z,98259.48
2018-06-02T15:45:54.271Z,98262.83
2018-06-02T15:48:23.340Z,98261.70
2018-06-02T15:50:51.609Z,98253.67
2018-06-02T15:53:19.888Z,98256.55
2018-06-02T15:55:48.822Z,98259.48
2018-06-02T15:58:17.900Z,98266.80
2018-06-02T16:00:46.165Z,98264.71
2018-06-02T16:03:14.438Z,98271.87
2018-06-02T16:05:42.715Z,98271.31
2018-06-02T16:08:10.956Z,98273.80
2018-06-02T16:10:39.209Z,98275.50
2018-06-02T16:13:07.461Z,98272.91
2018-06-02T16:15:36.489Z,98277.45
2018-06-02T16:18:06.221Z,98273.03
2018-06-02T16:20:34.569Z,98273.39
2018-06-02T16:23:02.892Z,98268.19
2018-06-02T16:25:31.228Z,98259.21
2018-06-02T16:27:59.477Z,98254.01
2018-06-02T16:30:28.545Z,98244.66
2018-06-02T16:32:59.595Z,98242.95
2018-06-02T16:35:28.741Z,98247.64
2018-06-02T16:37:57.051Z,98251.17
2018-06-02T16:40:25.392Z,98244.22
2018-06-02T16:42:53.709Z,98247.73
2018-06-02T16:45:22.034Z,98248.94
2018-06-02T16:47:50.350Z,98244.94
2018-06-02T16:50:18.697Z,98243.11
2018-06-02T16:52:47.053Z,98244.81
2018-06-02T16:55:16.165Z,98239.95
2018-06-02T16:57:44.519Z,98237.73
2018-06-02T17:00:13.614Z,98242.45
2018-06-02T17:02:42.696Z,98238.17
2018-06-02T17:05:11.030Z,98244.11
2018-06-02T17:07:39.457Z,98245.23
2018-06-02T17:10:07.812Z,98249.30
2018-06-02T17:12:37.062Z,98250.55
2018-06-02T17:15:06.882Z,98255.76
2018-06-02T17:17:35.137Z,98250.92
2018-06-02T17:20:04.223Z,98252.64
2018-06-02T17:22:32.416Z,98253.18
2018-06-02T17:25:00.670Z,98251.98
2018-06-02T17:27:29.698Z,98248.92
2018-06-02T17:29:57.942Z,98249.38
2018-06-02T17:32:26.968Z,98253.52
2018-06-02T17:34:55.470Z,98249.89
2018-06-02T17:37:23.722Z,98260.77
2018-06-02T17:39:51.974Z,98260.24
2018-06-02T17:42:20.993Z,98265.30
2018-06-02T17:44:49.241Z,98264.38
2018-06-02T17:47:18.260Z,98263.55
2018-06-02T17:49:46.509Z,98255.84
2018-06-02T17:52:15.534Z,98257.77
2018-06-02T17:54:43.786Z,98252.38
2018-06-02T17:57:12.211Z,98258.22
2018-06-02T17:59:40.525Z,98259.68
2018-06-02T18:02:09.814Z,98263.22
2018-06-02T18:04:38.170Z,98267.62
2018-06-02T18:07:06.561Z,98268.64
2018-06-02T18:09:35.755Z,98258.98
2018-06-02T18:12:04.074Z,98263.69
2018-06-02T18:14:32.400Z,98264.56
2018-06-02T18:17:00.770Z,98265.89
2018-06-02T18:19:29.166Z,98257.27
2018-06-02T18:21:57.483Z,98265.64
2018-06-02T18:24:25.812Z,98268.41
2018-06-02T18:26:54.069Z,98265.62
2018-06-02T18:29:22.384Z,98266.68
2018-06-02T18:31:50.705Z,98270.87
2018-06-02T18:34:19.078Z,98266.38
2018-06-02T18:36:47.397Z,98267.50
2018-06-02T18:39:16.636Z,98268.98
2018-06-02T18:41:44.925Z,98270.89
2018-06-02T18:44:13.278Z,98275.10
2018-06-02T18:46:42.380Z,98269.09
2018-06-02T18:49:11.545Z,98274.34
2018-06-02T18:51:39.895Z,98269.02
2018-06-02T18:54:08.209Z,98269.79
2018-06-02T18:56:36.536Z,98276.00
2018-06-02T18:59:04.883Z,98278.21
2018-06-02T19:01:33.287Z,98285.94
2018-06-02T19:04:01.582Z,98291.59
2018-06-02T19:06:29.975Z,98292.52
2018-06-02T19:08:58.282Z,98295.05
2018-06-02T19:11:26.587Z,98294.87
2018-06-02T19:13:54.882Z,98294.08
2018-06-02T19:16:23.191Z,98304.88
2018-06-02T19:18:52.266Z,98299.69
2018-06-02T19:21:20.616Z,98298.03
2018-06-02T19:23:48.935Z,98308.47
2018-06-02T19:26:17.258Z,98313.12
2018-06-02T19:28:46.353Z,98313.12
2018-06-02T19:31:15.506Z,98314.69
2018-06-02T19:33:43.827Z,98322.52
2018-06-02T19:36:12.923Z,98318.74
2018-06-02T19:38:42.940Z,98322.70
2018-06-02T19:41:11.944Z,98333.58
2018-06-02T19:43:40.509Z,98332.19
2018-06-02T19:46:09.530Z,98338.89
2018-06-02T19:48:37.781Z,98334.25
2018-06-02T19:51:06.802Z,98333.33
2018-06-02T19:53:35.060Z,98339.37
2018-06-02T19:56:03.308Z,98347.11
2018-06-02T19:58:31.566Z,98345.59
2018-06-02T20:00:59.812Z,98347.98
2018-06-02T20:03:28.123Z,98352.42
2018-06-02T20:05:56.391Z,98352.92
2018-06-02T20:08:24.661Z,98363.40
2018-06-02T20:10:52.912Z,98359.53
2018-06-02T20:13:22.321Z,98352.16
2018-06-02T20:15:50.640Z,98359.55
2018-06-02T20:18:19.701Z,98359.97
2018-06-02T20:20:47.945Z,98357.98
2018-06-02T20:23:16.208Z,98357.31
2018-06-02T20:25:45.221Z,98360.48
2018-06-02T20:28:13.469Z,98364.84
2018-06-02T20:30:42.501Z,98361.21
2018-06-02T20:33:10.752Z,98370.72
2018-06-02T20:35:39.028Z,98368.31
2018-06-02T20:38:07.276Z,98367.09
2018-06-02T20:40:35.534Z,98371.41
2018-06-02T20:43:03.785Z,98368.38
2018-06-02T20:45:32.042Z,98363.34
2018-06-02T20:48:00.296Z,98373.19
2018-06-02T20:50:29.317Z,98369.11
2018-06-02T20:52:57.565Z,98366.80
2018-06-02T20:55:26.605Z,98366.60
2018-06-02T20:57:54.990Z,98366.61
2018-06-02T21:00:23.243Z,98369.38
2018-06-02T21:02:51.488Z,98362.34
2018-06-02T21:05:20.510Z,98365.03
2018-06-02T21:07:48.792Z,98373.55
2018-06-02T21:10:17.017Z,98374.00
2018-06-02T21:12:46.029Z,98369.54
2018-06-02T21:15:14.289Z,98380.77
2018-06-02T21:17:43.304Z,98380.25
2018-06-02T21:20:11.565Z,98385.27
2018-06-02T21:22:40.601Z,98383.34
2018-06-02T21:25:08.842Z,98388.55
2018-06-02T21:27:37.102Z,98386.41
2018-06-02T21:30:06.114Z,98388.75
2018-06-02T21:32:34.367Z,98400.28
2018-06-02T21:35:02.669Z,98399.64
2018-06-02T21:37:30.922Z,98401.19
2018-06-02T21:39:59.934Z,98402.55
2018-06-02T21:42:28.217Z,98401.12
2018-06-02T21:44:56.481Z,98402.93
2018-06-02T21:47:25.500Z,98406.86
2018-06-02T21:49:54.689Z,98403.31
2018-06-02T21:52:22.985Z,98404.48
2018-06-02T21:54:51.962Z,98404.84
2018-06-02T21:57:20.220Z,98404.17
2018-06-02T21:59:49.236Z,98412.72
2018-06-02T22:02:17.489Z,98415.09
2018-06-02T22:04:45.740Z,98417.52
2018-06-02T22:07:13.989Z,98416.59
2018-06-02T22:09:42.605Z,98415.44
2018-06-02T22:12:10.849Z,98412.91
2018-06-02T22:14:39.128Z,98414.80
2018-06-02T22:17:07.378Z,98417.16
2018-06-02T22:19:35.630Z,98419.42
2018-06-02T22:22:03.879Z,98410.30
2018-06-02T22:24:32.136Z,98406.16
2018-06-02T22:27:00.373Z,98410.06
2018-06-02T22:29:28.634Z,98403.84
2018-06-02T22:31:56.885Z,98408.30
2018-06-02T22:34:25.906Z,98404.22
2018-06-02T22:36:54.150Z,98401.53
2018-06-02T22:39:22.405Z,98402.67
2018-06-02T22:41:50.657Z,98406.97
2018-06-02T22:44:18.915Z,98406.16
2018-06-02T22:46:47.159Z,98408.52
2018-06-02T22:49:16.182Z,98410.16
2018-06-02T22:51:57.365Z,98408.79
2018-06-02T22:54:26.480Z,98403.66
2018-06-02T22:56:54.833Z,98408.11
2018-06-02T22:59:23.179Z,98410.38
2018-06-02T23:01:52.200Z,98413.23
2018-06-02T23:04:20.448Z,98412.11
2018-06-02T23:06:49.470Z,98415.50
2018-06-02T23:09:17.723Z,98419.50
2018-06-02T23:11:48.441Z,98422.36
2018-06-02T23:14:16.682Z,98423.22
2018-06-02T23:16:44.933Z,98429.78
2018-06-02T23:19:13.181Z,98423.31
2018-06-02T23:21:42.201Z,98424.95
2018-06-02T23:24:10.451Z,98425.55
2018-06-02T23:26:39.476Z,98420.92
2018-06-02T23:29:07.724Z,98421.39
2018-06-02T23:31:35.989Z,98421.59
2018-06-02T23:34:05.009Z,98419.92
2018-06-02T23:36:33.262Z,98411.95
2018-06-02T23:39:02.280Z,98418.36
2018-06-02T23:41:30.533Z,98418.97
2018-06-02T23:43:59.558Z,98422.44
2018-06-02T23:46:27.808Z,98422.36
2018-06-02T23:48:56.053Z,98426.78
2018-06-02T23:51:24.315Z,98422.70
2018-06-02T23:53:52.567Z,98423.13
2018-06-02T23:56:20.830Z,98425.16
2018-06-02T23:58:49.085Z,98418.48
